Walla Walla, Washington
Current Conditions -  °F | °C
As of 6:53 PM on Saturday 22 Nov 2014 (Local Time) from KALW Reporting Station
Few Clouds Few Clouds  
Wind Chill: 35°   Ceiling: Unl
Heat Index: 42°   Visibility: 10mi
Dew Point: 37°   Wind: 13mph
Humidity: 82%   Direction: 190°S
Pressure: 29.98"   Gusts: NA
Location:  46.07°N, 118.34°W
Report Text: KALW 230253Z AUTO 19011KT 10SM FEW065 06/03 A2998 RMK AO2 SLP158 60001 T00560028 51044
Loading
Personal Weather Stations






























Interactive Weather Map New forecast layout! Learn more

10-Day Weather Forecast

Advertisements
Track Severe Weather on mobile